sensor_id;sensor_type;location;lat;lon;timestamp;P1;durP1;ratioP1;P2;durP2;ratioP2
74749;SDS011;63269;53.330;-6.288;2023-07-20T00:00:44;4.55;;;2.45;;
74749;SDS011;63269;53.330;-6.288;2023-07-20T00:03:10;2.30;;;2.10;;
74749;SDS011;63269;53.330;-6.288;2023-07-20T00:05:42;2.97;;;2.00;;
74749;SDS011;63269;53.330;-6.288;2023-07-20T00:08:08;4.88;;;2.22;;
74749;SDS011;63269;53.330;-6.288;2023-07-20T00:10:34;3.33;;;2.33;;
74749;SDS011;63269;53.330;-6.288;2023-07-20T00:12:59;3.28;;;2.42;;
74749;SDS011;63269;53.330;-6.288;2023-07-20T00:15:25;2.65;;;2.05;;
74749;SDS011;63269;53.330;-6.288;2023-07-20T00:17:50;3.55;;;2.03;;
74749;SDS011;63269;53.330;-6.288;2023-07-20T00:20:16;2.75;;;2.15;;
74749;SDS011;63269;53.330;-6.288;2023-07-20T00:22:42;3.25;;;2.08;;
74749;SDS011;63269;53.330;-6.288;2023-07-20T00:25:07;2.60;;;2.05;;
74749;SDS011;63269;53.330;-6.288;2023-07-20T00:27:33;3.10;;;1.95;;
74749;SDS011;63269;53.330;-6.288;2023-07-20T00:29:58;3.13;;;2.10;;
74749;SDS011;63269;53.330;-6.288;2023-07-20T00:32:24;2.85;;;2.05;;
74749;SDS011;63269;53.330;-6.288;2023-07-20T00:34:49;2.67;;;2.20;;
74749;SDS011;63269;53.330;-6.288;2023-07-20T00:37:14;2.28;;;1.90;;
74749;SDS011;63269;53.330;-6.288;2023-07-20T00:39:40;3.80;;;2.28;;
74749;SDS011;63269;53.330;-6.288;2023-07-20T00:42:05;2.00;;;1.65;;
74749;SDS011;63269;53.330;-6.288;2023-07-20T00:44:31;2.75;;;2.00;;
74749;SDS011;63269;53.330;-6.288;2023-07-20T00:46:56;2.65;;;2.20;;
74749;SDS011;63269;53.330;-6.288;2023-07-20T00:49:22;3.30;;;2.22;;
74749;SDS011;63269;53.330;-6.288;2023-07-20T00:51:48;2.65;;;1.90;;
74749;SDS011;63269;53.330;-6.288;2023-07-20T00:54:15;2.30;;;1.88;;
74749;SDS011;63269;53.330;-6.288;2023-07-20T00:56:41;2.58;;;2.13;;
74749;SDS011;63269;53.330;-6.288;2023-07-20T00:59:07;4.18;;;2.50;;
74749;SDS011;63269;53.330;-6.288;2023-07-20T01:01:32;2.50;;;1.92;;
74749;SDS011;63269;53.330;-6.288;2023-07-20T01:03:58;3.25;;;1.98;;
74749;SDS011;63269;53.330;-6.288;2023-07-20T01:06:36;3.08;;;1.95;;
74749;SDS011;63269;53.330;-6.288;2023-07-20T01:12:07;2.70;;;1.92;;
74749;SDS011;63269;53.330;-6.288;2023-07-20T01:14:37;2.20;;;1.52;;
74749;SDS011;63269;53.330;-6.288;2023-07-20T01:17:04;3.45;;;2.08;;
74749;SDS011;63269;53.330;-6.288;2023-07-20T01:19:29;2.40;;;2.00;;
74749;SDS011;63269;53.330;-6.288;2023-07-20T01:21:57;2.70;;;1.90;;
74749;SDS011;63269;53.330;-6.288;2023-07-20T01:32:55;3.10;;;2.00;;
74749;SDS011;63269;53.330;-6.288;2023-07-20T01:35:23;2.58;;;2.08;;
74749;SDS011;63269;53.330;-6.288;2023-07-20T01:37:53;2.22;;;1.83;;
74749;SDS011;63269;53.330;-6.288;2023-07-20T01:40:19;3.25;;;1.90;;
74749;SDS011;63269;53.330;-6.288;2023-07-20T01:42:46;2.00;;;1.67;;
74749;SDS011;63269;53.330;-6.288;2023-07-20T01:45:12;2.65;;;1.73;;
74749;SDS011;63269;53.330;-6.288;2023-07-20T01:47:38;3.47;;;2.10;;
74749;SDS011;63269;53.330;-6.288;2023-07-20T01:50:03;2.65;;;2.03;;
74749;SDS011;63269;53.330;-6.288;2023-07-20T01:52:29;2.70;;;2.28;;
74749;SDS011;63269;53.330;-6.288;2023-07-20T01:54:55;2.53;;;1.77;;
74749;SDS011;63269;53.330;-6.288;2023-07-20T01:57:20;1.88;;;1.60;;
74749;SDS011;63269;53.330;-6.288;2023-07-20T01:59:46;4.32;;;1.92;;
74749;SDS011;63269;53.330;-6.288;2023-07-20T02:02:11;2.50;;;1.90;;
74749;SDS011;63269;53.330;-6.288;2023-07-20T02:04:36;3.17;;;1.90;;
74749;SDS011;63269;53.330;-6.288;2023-07-20T02:07:02;4.78;;;2.05;;
74749;SDS011;63269;53.330;-6.288;2023-07-20T02:09:27;5.85;;;2.40;;
74749;SDS011;63269;53.330;-6.288;2023-07-20T02:11:52;2.08;;;1.83;;
74749;SDS011;63269;53.330;-6.288;2023-07-20T02:14:18;1.83;;;1.70;;
74749;SDS011;63269;53.330;-6.288;2023-07-20T02:16:43;2.40;;;1.60;;
74749;SDS011;63269;53.330;-6.288;2023-07-20T02:19:09;2.22;;;1.80;;
74749;SDS011;63269;53.330;-6.288;2023-07-20T02:21:34;2.85;;;1.98;;
74749;SDS011;63269;53.330;-6.288;2023-07-20T02:24:00;2.63;;;1.60;;
74749;SDS011;63269;53.330;-6.288;2023-07-20T02:26:25;2.45;;;2.10;;
74749;SDS011;63269;53.330;-6.288;2023-07-20T02:28:51;2.65;;;1.92;;
74749;SDS011;63269;53.330;-6.288;2023-07-20T02:31:16;3.65;;;2.20;;
74749;SDS011;63269;53.330;-6.288;2023-07-20T02:33:41;3.75;;;1.95;;
74749;SDS011;63269;53.330;-6.288;2023-07-20T02:36:07;2.22;;;1.75;;
74749;SDS011;63269;53.330;-6.288;2023-07-20T02:38:32;3.15;;;2.33;;
74749;SDS011;63269;53.330;-6.288;2023-07-20T02:40:57;2.90;;;1.98;;
74749;SDS011;63269;53.330;-6.288;2023-07-20T02:43:23;3.17;;;2.08;;
74749;SDS011;63269;53.330;-6.288;2023-07-20T02:45:50;2.90;;;2.05;;
74749;SDS011;63269;53.330;-6.288;2023-07-20T02:48:15;4.05;;;2.15;;
74749;SDS011;63269;53.330;-6.288;2023-07-20T02:50:40;2.22;;;1.83;;
74749;SDS011;63269;53.330;-6.288;2023-07-20T02:53:06;2.10;;;1.80;;
74749;SDS011;63269;53.330;-6.288;2023-07-20T02:55:31;2.30;;;1.60;;
74749;SDS011;63269;53.330;-6.288;2023-07-20T02:57:57;2.85;;;1.55;;
74749;SDS011;63269;53.330;-6.288;2023-07-20T03:00:22;2.65;;;1.95;;
74749;SDS011;63269;53.330;-6.288;2023-07-20T03:02:48;2.13;;;1.75;;
74749;SDS011;63269;53.330;-6.288;2023-07-20T03:05:14;1.98;;;1.77;;
74749;SDS011;63269;53.330;-6.288;2023-07-20T03:07:41;2.33;;;2.10;;
74749;SDS011;63269;53.330;-6.288;2023-07-20T03:10:08;2.30;;;1.75;;
74749;SDS011;63269;53.330;-6.288;2023-07-20T03:12:34;2.47;;;2.22;;
74749;SDS011;63269;53.330;-6.288;2023-07-20T03:15:04;2.10;;;1.83;;
74749;SDS011;63269;53.330;-6.288;2023-07-20T03:17:29;2.08;;;1.58;;
74749;SDS011;63269;53.330;-6.288;2023-07-20T03:19:55;2.60;;;1.90;;
74749;SDS011;63269;53.330;-6.288;2023-07-20T03:22:21;2.53;;;2.00;;
74749;SDS011;63269;53.330;-6.288;2023-07-20T03:24:47;2.15;;;1.80;;
74749;SDS011;63269;53.330;-6.288;2023-07-20T03:27:12;3.22;;;2.30;;
74749;SDS011;63269;53.330;-6.288;2023-07-20T03:29:38;1.92;;;1.60;;
74749;SDS011;63269;53.330;-6.288;2023-07-20T03:32:04;2.10;;;1.90;;
74749;SDS011;63269;53.330;-6.288;2023-07-20T03:34:29;2.30;;;2.05;;
74749;SDS011;63269;53.330;-6.288;2023-07-20T03:36:55;2.13;;;1.92;;
74749;SDS011;63269;53.330;-6.288;2023-07-20T03:39:21;2.38;;;2.05;;
74749;SDS011;63269;53.330;-6.288;2023-07-20T03:41:47;2.47;;;1.92;;
74749;SDS011;63269;53.330;-6.288;2023-07-20T03:44:12;1.90;;;1.70;;
74749;SDS011;63269;53.330;-6.288;2023-07-20T03:46:38;2.70;;;1.80;;
74749;SDS011;63269;53.330;-6.288;2023-07-20T03:49:03;3.63;;;2.00;;
74749;SDS011;63269;53.330;-6.288;2023-07-20T03:51:31;2.15;;;1.77;;
74749;SDS011;63269;53.330;-6.288;2023-07-20T03:53:56;2.42;;;1.95;;
74749;SDS011;63269;53.330;-6.288;2023-07-20T03:56:22;2.30;;;1.85;;
74749;SDS011;63269;53.330;-6.288;2023-07-20T03:58:48;2.13;;;1.67;;
74749;SDS011;63269;53.330;-6.288;2023-07-20T04:01:13;2.72;;;1.80;;
74749;SDS011;63269;53.330;-6.288;2023-07-20T04:03:38;2.78;;;2.13;;
74749;SDS011;63269;53.330;-6.288;2023-07-20T04:06:04;2.25;;;1.88;;
74749;SDS011;63269;53.330;-6.288;2023-07-20T04:08:29;2.03;;;1.55;;
74749;SDS011;63269;53.330;-6.288;2023-07-20T04:10:55;2.45;;;2.00;;
74749;SDS011;63269;53.330;-6.288;2023-07-20T04:13:20;2.60;;;1.92;;
74749;SDS011;63269;53.330;-6.288;2023-07-20T04:15:47;3.30;;;2.50;;
74749;SDS011;63269;53.330;-6.288;2023-07-20T04:18:12;2.42;;;1.67;;
74749;SDS011;63269;53.330;-6.288;2023-07-20T04:20:38;2.28;;;1.73;;
74749;SDS011;63269;53.330;-6.288;2023-07-20T04:23:03;2.75;;;1.80;;
74749;SDS011;63269;53.330;-6.288;2023-07-20T04:25:29;2.28;;;1.83;;
74749;SDS011;63269;53.330;-6.288;2023-07-20T04:28:04;2.53;;;2.13;;
74749;SDS011;63269;53.330;-6.288;2023-07-20T04:30:33;3.05;;;2.15;;
74749;SDS011;63269;53.330;-6.288;2023-07-20T04:33:00;2.60;;;1.88;;
74749;SDS011;63269;53.330;-6.288;2023-07-20T04:35:44;2.00;;;1.80;;
74749;SDS011;63269;53.330;-6.288;2023-07-20T04:38:13;2.13;;;1.70;;
74749;SDS011;63269;53.330;-6.288;2023-07-20T04:40:42;3.10;;;1.90;;
74749;SDS011;63269;53.330;-6.288;2023-07-20T04:43:08;3.47;;;2.08;;
74749;SDS011;63269;53.330;-6.288;2023-07-20T04:45:34;1.95;;;1.73;;
74749;SDS011;63269;53.330;-6.288;2023-07-20T04:47:59;2.50;;;1.80;;
74749;SDS011;63269;53.330;-6.288;2023-07-20T04:50:25;2.72;;;2.10;;
74749;SDS011;63269;53.330;-6.288;2023-07-20T04:52:50;1.92;;;1.73;;
74749;SDS011;63269;53.330;-6.288;2023-07-20T04:55:15;2.22;;;1.83;;
74749;SDS011;63269;53.330;-6.288;2023-07-20T04:57:41;2.53;;;1.90;;
74749;SDS011;63269;53.330;-6.288;2023-07-20T05:00:07;2.13;;;1.80;;
74749;SDS011;63269;53.330;-6.288;2023-07-20T05:02:35;2.63;;;1.98;;
74749;SDS011;63269;53.330;-6.288;2023-07-20T05:05:00;3.83;;;2.97;;
74749;SDS011;63269;53.330;-6.288;2023-07-20T05:07:26;3.50;;;2.30;;
74749;SDS011;63269;53.330;-6.288;2023-07-20T05:09:51;3.40;;;1.80;;
74749;SDS011;63269;53.330;-6.288;2023-07-20T05:12:17;2.50;;;2.30;;
74749;SDS011;63269;53.330;-6.288;2023-07-20T05:14:42;2.80;;;2.10;;
74749;SDS011;63269;53.330;-6.288;2023-07-20T05:17:07;2.92;;;2.08;;
74749;SDS011;63269;53.330;-6.288;2023-07-20T05:19:33;2.25;;;2.00;;
74749;SDS011;63269;53.330;-6.288;2023-07-20T05:21:59;3.63;;;2.25;;
74749;SDS011;63269;53.330;-6.288;2023-07-20T05:24:24;2.25;;;2.05;;
74749;SDS011;63269;53.330;-6.288;2023-07-20T05:26:49;2.42;;;1.90;;
74749;SDS011;63269;53.330;-6.288;2023-07-20T05:29:15;2.55;;;2.28;;
74749;SDS011;63269;53.330;-6.288;2023-07-20T05:31:40;3.13;;;2.08;;
74749;SDS011;63269;53.330;-6.288;2023-07-20T05:34:06;2.25;;;1.92;;
74749;SDS011;63269;53.330;-6.288;2023-07-20T05:36:31;2.72;;;1.77;;
74749;SDS011;63269;53.330;-6.288;2023-07-20T05:38:56;3.25;;;2.38;;
74749;SDS011;63269;53.330;-6.288;2023-07-20T05:41:22;2.95;;;2.47;;
74749;SDS011;63269;53.330;-6.288;2023-07-20T05:43:47;3.30;;;2.17;;
74749;SDS011;63269;53.330;-6.288;2023-07-20T05:46:13;3.80;;;2.22;;
74749;SDS011;63269;53.330;-6.288;2023-07-20T05:48:38;2.45;;;2.00;;
74749;SDS011;63269;53.330;-6.288;2023-07-20T05:51:05;3.65;;;1.90;;
74749;SDS011;63269;53.330;-6.288;2023-07-20T05:53:30;3.08;;;2.40;;
74749;SDS011;63269;53.330;-6.288;2023-07-20T05:55:56;2.33;;;2.08;;
74749;SDS011;63269;53.330;-6.288;2023-07-20T05:58:21;2.65;;;2.42;;
74749;SDS011;63269;53.330;-6.288;2023-07-20T06:00:48;2.85;;;2.25;;
74749;SDS011;63269;53.330;-6.288;2023-07-20T06:03:14;3.25;;;2.45;;
74749;SDS011;63269;53.330;-6.288;2023-07-20T06:05:41;3.50;;;2.38;;
74749;SDS011;63269;53.330;-6.288;2023-07-20T06:08:07;4.38;;;2.25;;
74749;SDS011;63269;53.330;-6.288;2023-07-20T06:10:32;2.90;;;2.15;;
74749;SDS011;63269;53.330;-6.288;2023-07-20T06:12:58;3.03;;;2.15;;
74749;SDS011;63269;53.330;-6.288;2023-07-20T06:15:24;3.30;;;2.25;;
74749;SDS011;63269;53.330;-6.288;2023-07-20T06:17:51;5.00;;;2.38;;
74749;SDS011;63269;53.330;-6.288;2023-07-20T06:20:16;2.97;;;2.38;;
74749;SDS011;63269;53.330;-6.288;2023-07-20T06:22:41;3.67;;;2.70;;
74749;SDS011;63269;53.330;-6.288;2023-07-20T06:25:07;3.60;;;2.60;;
74749;SDS011;63269;53.330;-6.288;2023-07-20T06:27:33;2.80;;;2.38;;
74749;SDS011;63269;53.330;-6.288;2023-07-20T06:29:58;3.90;;;2.90;;
74749;SDS011;63269;53.330;-6.288;2023-07-20T06:32:23;3.20;;;2.60;;
74749;SDS011;63269;53.330;-6.288;2023-07-20T06:34:49;3.15;;;2.60;;
74749;SDS011;63269;53.330;-6.288;2023-07-20T06:37:14;3.63;;;2.45;;
74749;SDS011;63269;53.330;-6.288;2023-07-20T06:39:40;3.28;;;2.60;;
74749;SDS011;63269;53.330;-6.288;2023-07-20T06:42:05;3.22;;;2.58;;
74749;SDS011;63269;53.330;-6.288;2023-07-20T06:44:31;2.88;;;2.58;;
74749;SDS011;63269;53.330;-6.288;2023-07-20T06:46:56;3.88;;;2.70;;
74749;SDS011;63269;53.330;-6.288;2023-07-20T06:49:25;4.22;;;2.75;;
74749;SDS011;63269;53.330;-6.288;2023-07-20T06:54:17;4.03;;;2.95;;
74749;SDS011;63269;53.330;-6.288;2023-07-20T06:56:42;2.63;;;2.35;;
74749;SDS011;63269;53.330;-6.288;2023-07-20T06:59:08;3.97;;;3.00;;
74749;SDS011;63269;53.330;-6.288;2023-07-20T07:01:33;3.15;;;2.85;;
74749;SDS011;63269;53.330;-6.288;2023-07-20T07:03:58;3.53;;;2.85;;
74749;SDS011;63269;53.330;-6.288;2023-07-20T07:06:24;3.10;;;2.45;;
74749;SDS011;63269;53.330;-6.288;2023-07-20T07:08:49;3.83;;;2.97;;
74749;SDS011;63269;53.330;-6.288;2023-07-20T07:11:15;4.05;;;2.90;;
74749;SDS011;63269;53.330;-6.288;2023-07-20T07:13:40;4.90;;;3.22;;
74749;SDS011;63269;53.330;-6.288;2023-07-20T07:16:05;4.30;;;2.83;;
74749;SDS011;63269;53.330;-6.288;2023-07-20T07:18:31;3.78;;;3.08;;
74749;SDS011;63269;53.330;-6.288;2023-07-20T07:20:56;3.42;;;2.95;;
74749;SDS011;63269;53.330;-6.288;2023-07-20T07:23:22;3.80;;;2.88;;
74749;SDS011;63269;53.330;-6.288;2023-07-20T07:25:47;4.85;;;3.10;;
74749;SDS011;63269;53.330;-6.288;2023-07-20T07:28:13;4.15;;;3.58;;
74749;SDS011;63269;53.330;-6.288;2023-07-20T07:30:38;5.85;;;3.28;;
74749;SDS011;63269;53.330;-6.288;2023-07-20T07:33:04;3.78;;;3.08;;
74749;SDS011;63269;53.330;-6.288;2023-07-20T07:35:29;3.45;;;3.00;;
74749;SDS011;63269;53.330;-6.288;2023-07-20T07:37:55;4.68;;;3.30;;
74749;SDS011;63269;53.330;-6.288;2023-07-20T07:40:20;4.20;;;3.47;;
74749;SDS011;63269;53.330;-6.288;2023-07-20T07:42:45;5.43;;;3.88;;
74749;SDS011;63269;53.330;-6.288;2023-07-20T07:45:11;3.97;;;3.00;;
74749;SDS011;63269;53.330;-6.288;2023-07-20T07:47:36;4.57;;;3.53;;
74749;SDS011;63269;53.330;-6.288;2023-07-20T07:50:02;3.88;;;3.30;;
74749;SDS011;63269;53.330;-6.288;2023-07-20T07:52:28;4.22;;;3.83;;
74749;SDS011;63269;53.330;-6.288;2023-07-20T07:54:53;4.57;;;3.60;;
74749;SDS011;63269;53.330;-6.288;2023-07-20T07:57:19;6.13;;;3.97;;
74749;SDS011;63269;53.330;-6.288;2023-07-20T07:59:44;4.35;;;3.53;;
74749;SDS011;63269;53.330;-6.288;2023-07-20T08:02:10;4.53;;;3.65;;
74749;SDS011;63269;53.330;-6.288;2023-07-20T08:04:35;4.03;;;3.60;;
74749;SDS011;63269;53.330;-6.288;2023-07-20T08:07:03;4.50;;;3.72;;
74749;SDS011;63269;53.330;-6.288;2023-07-20T08:09:28;5.95;;;3.67;;
74749;SDS011;63269;53.330;-6.288;2023-07-20T08:11:54;5.78;;;4.22;;
74749;SDS011;63269;53.330;-6.288;2023-07-20T08:14:19;5.63;;;4.13;;
74749;SDS011;63269;53.330;-6.288;2023-07-20T08:16:45;5.38;;;4.47;;
74749;SDS011;63269;53.330;-6.288;2023-07-20T08:19:11;7.50;;;4.10;;
74749;SDS011;63269;53.330;-6.288;2023-07-20T08:21:36;5.30;;;4.25;;
74749;SDS011;63269;53.330;-6.288;2023-07-20T08:24:01;6.30;;;4.78;;
74749;SDS011;63269;53.330;-6.288;2023-07-20T08:26:27;8.27;;;4.18;;
74749;SDS011;63269;53.330;-6.288;2023-07-20T08:28:52;6.38;;;4.80;;
74749;SDS011;63269;53.330;-6.288;2023-07-20T08:31:18;8.05;;;4.95;;
74749;SDS011;63269;53.330;-6.288;2023-07-20T08:33:43;5.63;;;4.55;;
74749;SDS011;63269;53.330;-6.288;2023-07-20T08:36:09;6.35;;;4.35;;
74749;SDS011;63269;53.330;-6.288;2023-07-20T08:38:34;7.30;;;5.43;;
74749;SDS011;63269;53.330;-6.288;2023-07-20T08:41:00;6.10;;;5.18;;
74749;SDS011;63269;53.330;-6.288;2023-07-20T08:43:27;6.32;;;5.10;;
74749;SDS011;63269;53.330;-6.288;2023-07-20T08:45:54;6.88;;;5.15;;
74749;SDS011;63269;53.330;-6.288;2023-07-20T08:50:52;8.68;;;6.10;;
74749;SDS011;63269;53.330;-6.288;2023-07-20T08:53:22;8.23;;;5.85;;
74749;SDS011;63269;53.330;-6.288;2023-07-20T08:55:48;11.48;;;6.30;;
74749;SDS011;63269;53.330;-6.288;2023-07-20T08:58:16;14.63;;;7.03;;
74749;SDS011;63269;53.330;-6.288;2023-07-20T09:00:42;14.73;;;6.18;;
74749;SDS011;63269;53.330;-6.288;2023-07-20T09:03:08;11.68;;;6.43;;
74749;SDS011;63269;53.330;-6.288;2023-07-20T09:05:35;14.27;;;6.53;;
74749;SDS011;63269;53.330;-6.288;2023-07-20T09:08:01;10.35;;;6.22;;
74749;SDS011;63269;53.330;-6.288;2023-07-20T09:10:28;9.98;;;6.40;;
74749;SDS011;63269;53.330;-6.288;2023-07-20T09:12:54;11.50;;;6.60;;
74749;SDS011;63269;53.330;-6.288;2023-07-20T09:15:20;9.98;;;6.07;;
74749;SDS011;63269;53.330;-6.288;2023-07-20T09:17:47;11.13;;;6.30;;
74749;SDS011;63269;53.330;-6.288;2023-07-20T09:20:14;10.38;;;6.68;;
74749;SDS011;63269;53.330;-6.288;2023-07-20T09:22:42;9.98;;;5.90;;
74749;SDS011;63269;53.330;-6.288;2023-07-20T09:25:17;10.15;;;6.68;;
74749;SDS011;63269;53.330;-6.288;2023-07-20T09:27:47;9.15;;;6.35;;
74749;SDS011;63269;53.330;-6.288;2023-07-20T09:30:14;9.20;;;6.20;;
74749;SDS011;63269;53.330;-6.288;2023-07-20T09:32:44;12.63;;;6.38;;
74749;SDS011;63269;53.330;-6.288;2023-07-20T09:35:16;14.57;;;7.00;;
74749;SDS011;63269;53.330;-6.288;2023-07-20T09:40:22;8.77;;;5.85;;
74749;SDS011;63269;53.330;-6.288;2023-07-20T09:42:48;10.02;;;6.53;;
74749;SDS011;63269;53.330;-6.288;2023-07-20T09:45:17;8.68;;;6.40;;
74749;SDS011;63269;53.330;-6.288;2023-07-20T09:47:42;10.18;;;6.82;;
74749;SDS011;63269;53.330;-6.288;2023-07-20T09:50:08;7.90;;;6.10;;
74749;SDS011;63269;53.330;-6.288;2023-07-20T09:52:37;8.75;;;7.03;;
74749;SDS011;63269;53.330;-6.288;2023-07-20T09:55:04;8.05;;;5.70;;
74749;SDS011;63269;53.330;-6.288;2023-07-20T09:57:31;10.32;;;6.53;;
74749;SDS011;63269;53.330;-6.288;2023-07-20T09:59:58;10.82;;;7.25;;
74749;SDS011;63269;53.330;-6.288;2023-07-20T10:02:30;8.13;;;5.95;;
74749;SDS011;63269;53.330;-6.288;2023-07-20T10:04:58;8.43;;;5.85;;
74749;SDS011;63269;53.330;-6.288;2023-07-20T10:07:28;11.18;;;6.80;;
74749;SDS011;63269;53.330;-6.288;2023-07-20T10:09:55;8.45;;;6.25;;
74749;SDS011;63269;53.330;-6.288;2023-07-20T10:12:23;7.80;;;6.25;;
74749;SDS011;63269;53.330;-6.288;2023-07-20T10:14:53;8.98;;;6.63;;
74749;SDS011;63269;53.330;-6.288;2023-07-20T10:17:25;9.18;;;6.05;;
74749;SDS011;63269;53.330;-6.288;2023-07-20T10:19:51;8.82;;;6.32;;
74749;SDS011;63269;53.330;-6.288;2023-07-20T10:22:27;7.82;;;5.93;;
74749;SDS011;63269;53.330;-6.288;2023-07-20T10:24:58;8.27;;;6.00;;
74749;SDS011;63269;53.330;-6.288;2023-07-20T10:27:24;7.72;;;5.93;;
74749;SDS011;63269;53.330;-6.288;2023-07-20T10:29:51;8.77;;;5.85;;
74749;SDS011;63269;53.330;-6.288;2023-07-20T10:32:18;7.47;;;6.20;;
74749;SDS011;63269;53.330;-6.288;2023-07-20T10:34:50;7.65;;;6.13;;
74749;SDS011;63269;53.330;-6.288;2023-07-20T10:43:01;9.00;;;6.20;;
74749;SDS011;63269;53.330;-6.288;2023-07-20T10:48:17;7.55;;;6.47;;
74749;SDS011;63269;53.330;-6.288;2023-07-20T10:50:44;7.05;;;6.10;;
74749;SDS011;63269;53.330;-6.288;2023-07-20T10:53:15;6.65;;;5.88;;
74749;SDS011;63269;53.330;-6.288;2023-07-20T10:55:42;7.25;;;5.80;;
74749;SDS011;63269;53.330;-6.288;2023-07-20T10:58:15;8.68;;;6.55;;
74749;SDS011;63269;53.330;-6.288;2023-07-20T11:03:36;7.43;;;6.40;;
74749;SDS011;63269;53.330;-6.288;2023-07-20T11:11:28;7.10;;;5.78;;
74749;SDS011;63269;53.330;-6.288;2023-07-20T11:14:02;8.48;;;6.40;;
74749;SDS011;63269;53.330;-6.288;2023-07-20T11:19:40;7.03;;;6.32;;
74749;SDS011;63269;53.330;-6.288;2023-07-20T11:21:59;7.45;;;6.38;;
74749;SDS011;63269;53.330;-6.288;2023-07-20T11:24:24;8.02;;;6.93;;
74749;SDS011;63269;53.330;-6.288;2023-07-20T11:26:50;8.05;;;6.40;;
74749;SDS011;63269;53.330;-6.288;2023-07-20T11:29:17;8.25;;;6.05;;
74749;SDS011;63269;53.330;-6.288;2023-07-20T11:31:48;8.23;;;6.65;;
74749;SDS011;63269;53.330;-6.288;2023-07-20T11:34:15;7.55;;;5.97;;
74749;SDS011;63269;53.330;-6.288;2023-07-20T11:36:42;7.97;;;5.88;;
74749;SDS011;63269;53.330;-6.288;2023-07-20T11:39:27;8.15;;;6.13;;
74749;SDS011;63269;53.330;-6.288;2023-07-20T11:41:56;13.13;;;7.05;;
74749;SDS011;63269;53.330;-6.288;2023-07-20T11:44:23;7.85;;;6.97;;
74749;SDS011;63269;53.330;-6.288;2023-07-20T11:49:53;7.47;;;6.20;;
74749;SDS011;63269;53.330;-6.288;2023-07-20T11:52:19;6.38;;;5.55;;
74749;SDS011;63269;53.330;-6.288;2023-07-20T11:54:45;6.72;;;5.75;;
74749;SDS011;63269;53.330;-6.288;2023-07-20T11:57:19;7.72;;;6.60;;
74749;SDS011;63269;53.330;-6.288;2023-07-20T11:59:54;6.72;;;6.05;;
74749;SDS011;63269;53.330;-6.288;2023-07-20T12:02:24;7.40;;;6.35;;
74749;SDS011;63269;53.330;-6.288;2023-07-20T12:04:51;7.45;;;6.47;;
74749;SDS011;63269;53.330;-6.288;2023-07-20T12:07:18;7.38;;;6.50;;
74749;SDS011;63269;53.330;-6.288;2023-07-20T12:09:44;7.22;;;6.22;;
74749;SDS011;63269;53.330;-6.288;2023-07-20T12:12:10;7.93;;;6.38;;
74749;SDS011;63269;53.330;-6.288;2023-07-20T12:14:39;9.50;;;6.57;;
74749;SDS011;63269;53.330;-6.288;2023-07-20T12:17:04;7.70;;;6.35;;
74749;SDS011;63269;53.330;-6.288;2023-07-20T12:19:37;9.15;;;6.32;;
74749;SDS011;63269;53.330;-6.288;2023-07-20T12:22:03;7.63;;;6.82;;
74749;SDS011;63269;53.330;-6.288;2023-07-20T12:24:29;6.78;;;5.93;;
74749;SDS011;63269;53.330;-6.288;2023-07-20T12:26:57;8.10;;;7.00;;
74749;SDS011;63269;53.330;-6.288;2023-07-20T12:29:23;7.90;;;6.55;;
74749;SDS011;63269;53.330;-6.288;2023-07-20T12:31:49;7.90;;;6.53;;
74749;SDS011;63269;53.330;-6.288;2023-07-20T12:34:14;8.40;;;6.53;;
74749;SDS011;63269;53.330;-6.288;2023-07-20T12:36:40;8.38;;;7.32;;
74749;SDS011;63269;53.330;-6.288;2023-07-20T12:39:05;7.93;;;6.75;;
74749;SDS011;63269;53.330;-6.288;2023-07-20T12:41:30;7.45;;;6.55;;
74749;SDS011;63269;53.330;-6.288;2023-07-20T12:43:56;7.18;;;6.03;;
74749;SDS011;63269;53.330;-6.288;2023-07-20T12:46:23;8.15;;;6.57;;
74749;SDS011;63269;53.330;-6.288;2023-07-20T12:48:49;7.65;;;6.85;;
74749;SDS011;63269;53.330;-6.288;2023-07-20T12:51:14;8.38;;;6.72;;
74749;SDS011;63269;53.330;-6.288;2023-07-20T12:53:40;8.52;;;6.32;;
74749;SDS011;63269;53.330;-6.288;2023-07-20T12:56:05;8.18;;;6.68;;
74749;SDS011;63269;53.330;-6.288;2023-07-20T12:58:31;7.65;;;6.78;;
74749;SDS011;63269;53.330;-6.288;2023-07-20T13:00:56;8.60;;;6.70;;
74749;SDS011;63269;53.330;-6.288;2023-07-20T13:03:22;8.55;;;7.10;;
74749;SDS011;63269;53.330;-6.288;2023-07-20T13:05:47;8.18;;;6.43;;
74749;SDS011;63269;53.330;-6.288;2023-07-20T13:08:14;7.25;;;6.28;;
74749;SDS011;63269;53.330;-6.288;2023-07-20T13:10:39;8.32;;;7.53;;
74749;SDS011;63269;53.330;-6.288;2023-07-20T13:13:05;7.40;;;6.55;;
74749;SDS011;63269;53.330;-6.288;2023-07-20T13:15:32;8.05;;;6.43;;
74749;SDS011;63269;53.330;-6.288;2023-07-20T13:18:05;8.15;;;6.72;;
74749;SDS011;63269;53.330;-6.288;2023-07-20T13:20:30;8.35;;;7.45;;
74749;SDS011;63269;53.330;-6.288;2023-07-20T13:22:56;8.70;;;7.13;;
74749;SDS011;63269;53.330;-6.288;2023-07-20T13:25:21;7.93;;;6.55;;
74749;SDS011;63269;53.330;-6.288;2023-07-20T13:27:47;8.32;;;6.63;;
74749;SDS011;63269;53.330;-6.288;2023-07-20T13:30:12;9.40;;;7.03;;
74749;SDS011;63269;53.330;-6.288;2023-07-20T13:32:42;6.95;;;6.25;;
74749;SDS011;63269;53.330;-6.288;2023-07-20T13:35:08;9.55;;;7.82;;
74749;SDS011;63269;53.330;-6.288;2023-07-20T13:37:34;7.90;;;6.97;;
74749;SDS011;63269;53.330;-6.288;2023-07-20T13:39:59;7.63;;;6.85;;
74749;SDS011;63269;53.330;-6.288;2023-07-20T13:42:25;7.97;;;6.72;;
74749;SDS011;63269;53.330;-6.288;2023-07-20T13:44:51;7.70;;;6.90;;
74749;SDS011;63269;53.330;-6.288;2023-07-20T13:47:16;7.65;;;6.85;;
74749;SDS011;63269;53.330;-6.288;2023-07-20T13:49:42;7.22;;;6.53;;
74749;SDS011;63269;53.330;-6.288;2023-07-20T13:52:08;8.13;;;6.57;;
74749;SDS011;63269;53.330;-6.288;2023-07-20T13:54:34;7.65;;;6.70;;
74749;SDS011;63269;53.330;-6.288;2023-07-20T13:56:59;7.82;;;6.63;;
74749;SDS011;63269;53.330;-6.288;2023-07-20T13:59:24;8.90;;;7.57;;
74749;SDS011;63269;53.330;-6.288;2023-07-20T14:01:50;8.90;;;7.10;;
74749;SDS011;63269;53.330;-6.288;2023-07-20T14:04:15;9.73;;;7.50;;
74749;SDS011;63269;53.330;-6.288;2023-07-20T14:06:41;9.27;;;7.93;;
74749;SDS011;63269;53.330;-6.288;2023-07-20T14:09:07;7.68;;;6.88;;
74749;SDS011;63269;53.330;-6.288;2023-07-20T14:11:33;8.60;;;7.45;;
74749;SDS011;63269;53.330;-6.288;2023-07-20T14:13:58;8.05;;;7.25;;
74749;SDS011;63269;53.330;-6.288;2023-07-20T14:16:24;8.38;;;7.15;;
74749;SDS011;63269;53.330;-6.288;2023-07-20T14:18:50;8.23;;;7.43;;
74749;SDS011;63269;53.330;-6.288;2023-07-20T14:21:16;8.18;;;7.35;;
74749;SDS011;63269;53.330;-6.288;2023-07-20T14:23:46;8.68;;;7.50;;
74749;SDS011;63269;53.330;-6.288;2023-07-20T14:26:12;8.00;;;7.10;;
74749;SDS011;63269;53.330;-6.288;2023-07-20T14:28:38;9.32;;;8.35;;
74749;SDS011;63269;53.330;-6.288;2023-07-20T14:31:04;8.30;;;7.50;;
74749;SDS011;63269;53.330;-6.288;2023-07-20T14:33:30;8.63;;;7.32;;
74749;SDS011;63269;53.330;-6.288;2023-07-20T14:35:55;8.70;;;7.80;;
74749;SDS011;63269;53.330;-6.288;2023-07-20T14:38:21;11.13;;;8.57;;
74749;SDS011;63269;53.330;-6.288;2023-07-20T14:40:46;9.85;;;8.13;;
74749;SDS011;63269;53.330;-6.288;2023-07-20T14:43:12;8.55;;;7.65;;
74749;SDS011;63269;53.330;-6.288;2023-07-20T14:45:39;8.73;;;7.57;;
74749;SDS011;63269;53.330;-6.288;2023-07-20T14:48:05;9.68;;;8.63;;
74749;SDS011;63269;53.330;-6.288;2023-07-20T14:50:31;11.48;;;8.35;;
74749;SDS011;63269;53.330;-6.288;2023-07-20T14:52:56;9.82;;;8.20;;
74749;SDS011;63269;53.330;-6.288;2023-07-20T14:55:21;8.90;;;8.00;;
74749;SDS011;63269;53.330;-6.288;2023-07-20T14:57:48;8.85;;;7.95;;
74749;SDS011;63269;53.330;-6.288;2023-07-20T15:00:13;11.77;;;8.05;;
74749;SDS011;63269;53.330;-6.288;2023-07-20T15:02:40;10.35;;;8.60;;
74749;SDS011;63269;53.330;-6.288;2023-07-20T15:05:06;9.68;;;8.18;;
74749;SDS011;63269;53.330;-6.288;2023-07-20T15:07:33;10.15;;;8.98;;
74749;SDS011;63269;53.330;-6.288;2023-07-20T15:09:59;8.95;;;8.05;;